VIVA127 MMAA-MMMX
Flight info
| Callsign | VIVA127 |
|---|---|
| Flight time | N/A |
| Altitude | 30000 |
| Route | ALNUS1B ALNUS UT117 ESPOS ESPOS3A |
| Aircraft | A20N/M-SDE2E3FGHIRWXY/LB1 |
Departure
| Time | 2026-05-06 00:53 |
|---|---|
| Airport | General Juan N. Álvarez International Airport (MMAA) |
Arrival
| Time | N/A |
|---|---|
| Airport | Mexico City Benito Juárez International Airport (MMMX) |
| Time | Latitude | Longitude | Altitude | Speed | Heading |
|---|---|---|---|---|---|
| 2026-05-06 00:31 | 16.76099 | -99.75440 | 26 ft | 0 kts | 18° |
| 2026-05-06 00:44 | 16.76087 | -99.75445 | 28 ft | 3 kts | 58° |
| 2026-05-06 00:45 | 16.76083 | -99.75453 | 30 ft | 0 kts | 91° |
| 2026-05-06 00:47 | 16.76082 | -99.75450 | 30 ft | 2 kts | 111° |
| 2026-05-06 00:47 | 16.76043 | -99.75392 | 27 ft | 11 kts | 143° |
| 2026-05-06 00:47 | 16.75979 | -99.75366 | 30 ft | 10 kts | 163° |
| 2026-05-06 00:47 | 16.75917 | -99.75344 | 26 ft | 9 kts | 158° |
| 2026-05-06 00:48 | 16.75887 | -99.75310 | 28 ft | 5 kts | 112° |
| 2026-05-06 00:48 | 16.75877 | -99.75281 | 26 ft | 0 kts | 109° |
| 2026-05-06 00:48 | 16.75865 | -99.75245 | 26 ft | 20 kts | 109° |
| 2026-05-06 00:48 | 16.75792 | -99.75028 | 26 ft | 40 kts | 110° |
| 2026-05-06 00:49 | 16.75746 | -99.74882 | 27 ft | 0 kts | 108° |
| 2026-05-06 00:49 | 16.75716 | -99.74774 | 25 ft | 36 kts | 108° |
| 2026-05-06 00:49 | 16.75632 | -99.74494 | 26 ft | 36 kts | 108° |
| 2026-05-06 00:49 | 16.75561 | -99.74267 | 27 ft | 25 kts | 107° |
| 2026-05-06 00:50 | 16.75523 | -99.74150 | 29 ft | 26 kts | 109° |
| 2026-05-06 00:50 | 16.75464 | -99.73965 | 27 ft | 28 kts | 108° |
| 2026-05-06 00:50 | 16.75404 | -99.73769 | 27 ft | 29 kts | 108° |
| 2026-05-06 00:50 | 16.75341 | -99.73570 | 27 ft | 29 kts | 109° |
| 2026-05-06 00:51 | 16.75308 | -99.73465 | 28 ft | 0 kts | 108° |
| 2026-05-06 00:51 | 16.75306 | -99.73462 | 27 ft | 3 kts | 108° |
| 2026-05-06 00:51 | 16.75287 | -99.73404 | 26 ft | 13 kts | 110° |
| 2026-05-06 00:51 | 16.75212 | -99.73333 | 27 ft | 16 kts | 179° |
| 2026-05-06 00:52 | 16.75117 | -99.73368 | 27 ft | 12 kts | 220° |
| 2026-05-06 00:52 | 16.75101 | -99.73437 | 26 ft | 9 kts | 284° |
| 2026-05-06 00:52 | 16.75105 | -99.73449 | 27 ft | 0 kts | 288° |
| 2026-05-06 00:52 | 16.75107 | -99.73456 | 26 ft | 11 kts | 288° |
| 2026-05-06 00:53 | 16.75207 | -99.73783 | 25 ft | 80 kts | 287° |
| 2026-05-06 00:53 | 16.75435 | -99.74523 | 27 ft | 134 kts | 288° |
| 2026-05-06 00:53 | 16.75737 | -99.75557 | 269 ft | 152 kts | 282° |
| 2026-05-06 00:53 | 16.76058 | -99.76626 | 699 ft | 160 kts | 283° |
| 2026-05-06 00:54 | 16.76421 | -99.77743 | 1149 ft | 168 kts | 287° |
| 2026-05-06 00:54 | 16.76815 | -99.78966 | 1510 ft | 186 kts | 287° |
| 2026-05-06 00:54 | 16.77246 | -99.80323 | 1887 ft | 212 kts | 287° |
| 2026-05-06 00:54 | 16.77736 | -99.81881 | 2270 ft | 236 kts | 286° |
| 2026-05-06 00:55 | 16.78260 | -99.83550 | 2899 ft | 246 kts | 287° |
| 2026-05-06 00:55 | 16.79465 | -99.87219 | 4492 ft | 255 kts | 297° |
| 2026-05-06 00:55 | 16.80702 | -99.88557 | 5110 ft | 266 kts | 330° |
| 2026-05-06 00:56 | 16.82497 | -99.89135 | 5771 ft | 274 kts | 348° |
| 2026-05-06 00:56 | 16.84392 | -99.89507 | 6474 ft | 279 kts | 349° |
| 2026-05-06 00:56 | 16.86310 | -99.89912 | 7170 ft | 283 kts | 347° |
| 2026-05-06 00:56 | 16.88245 | -99.90371 | 7901 ft | 287 kts | 347° |
| 2026-05-06 00:57 | 16.90195 | -99.90869 | 8609 ft | 290 kts | 346° |
| 2026-05-06 00:57 | 16.92167 | -99.91393 | 9317 ft | 294 kts | 346° |
| 2026-05-06 00:57 | 16.94158 | -99.91935 | 9990 ft | 299 kts | 346° |
| 2026-05-06 00:57 | 16.96247 | -99.92338 | 10333 ft | 314 kts | 3° |
| 2026-05-06 00:58 | 16.98381 | -99.91745 | 10558 ft | 328 kts | 31° |
| 2026-05-06 00:58 | 17.00237 | -99.90392 | 10625 ft | 317 kts | 39° |
| 2026-05-06 00:58 | 17.01930 | -99.89033 | 10570 ft | 306 kts | 38° |
| 2026-05-06 00:58 | 17.03657 | -99.87731 | 10742 ft | 310 kts | 36° |
| 2026-05-06 00:59 | 17.05499 | -99.86432 | 10968 ft | 329 kts | 35° |
| 2026-05-06 00:59 | 17.07470 | -99.85112 | 11310 ft | 342 kts | 33° |
| 2026-05-06 00:59 | 17.09513 | -99.83784 | 11892 ft | 347 kts | 33° |
| 2026-05-06 00:59 | 17.11577 | -99.82462 | 12509 ft | 349 kts | 32° |
| 2026-05-06 01:00 | 17.13666 | -99.81135 | 13204 ft | 350 kts | 32° |
| 2026-05-06 01:00 | 17.15757 | -99.79811 | 13840 ft | 354 kts | 32° |
| 2026-05-06 01:00 | 17.17850 | -99.78487 | 14400 ft | 357 kts | 32° |
| 2026-05-06 01:00 | 17.19993 | -99.77127 | 14900 ft | 362 kts | 34° |
| 2026-05-06 01:01 | 17.21385 | -99.76154 | 15265 ft | 365 kts | 34° |
| 2026-05-06 01:01 | 17.24621 | -99.75017 | 15964 ft | 378 kts | 5° |
| 2026-05-06 01:01 | 17.27264 | -99.75287 | 16509 ft | 386 kts | 351° |
| 2026-05-06 01:01 | 17.29927 | -99.75795 | 17040 ft | 390 kts | 353° |
| 2026-05-06 01:02 | 17.32629 | -99.76175 | 17532 ft | 394 kts | 356° |
| 2026-05-06 01:02 | 17.35371 | -99.76428 | 17865 ft | 396 kts | 358° |
| 2026-05-06 01:02 | 17.38132 | -99.76595 | 17936 ft | 397 kts | 360° |
| 2026-05-06 01:02 | 17.40897 | -99.76712 | 17936 ft | 398 kts | 0° |
| 2026-05-06 01:03 | 17.43669 | -99.76802 | 17933 ft | 398 kts | 1° |
| 2026-05-06 01:03 | 17.46404 | -99.76878 | 17937 ft | 398 kts | 1° |
| 2026-05-06 01:03 | 17.49184 | -99.76947 | 17935 ft | 398 kts | 1° |
| 2026-05-06 01:03 | 17.51956 | -99.77011 | 17904 ft | 398 kts | 0° |
| 2026-05-06 01:04 | 17.54721 | -99.77073 | 17909 ft | 398 kts | 0° |
| 2026-05-06 01:04 | 17.57498 | -99.77133 | 17902 ft | 398 kts | 0° |
| 2026-05-06 01:04 | 17.60269 | -99.77194 | 17906 ft | 398 kts | 0° |
| 2026-05-06 01:04 | 17.63048 | -99.77254 | 17907 ft | 398 kts | 0° |
| 2026-05-06 01:05 | 17.65832 | -99.77314 | 18167 ft | 401 kts | 0° |
| 2026-05-06 01:05 | 17.68607 | -99.77372 | 18644 ft | 402 kts | 0° |
| 2026-05-06 01:05 | 17.71410 | -99.77431 | 19104 ft | 404 kts | 0° |
| 2026-05-06 01:05 | 17.74233 | -99.77491 | 19539 ft | 407 kts | 0° |
| 2026-05-06 01:06 | 17.77085 | -99.77553 | 19946 ft | 410 kts | 0° |
| 2026-05-06 01:06 | 17.79946 | -99.77667 | 20327 ft | 413 kts | 359° |
| 2026-05-06 01:06 | 17.82825 | -99.77817 | 20737 ft | 416 kts | 358° |
| 2026-05-06 01:06 | 17.85729 | -99.77976 | 21174 ft | 419 kts | 359° |
| 2026-05-06 01:07 | 17.88659 | -99.78135 | 21650 ft | 421 kts | 358° |
| 2026-05-06 01:07 | 17.91551 | -99.78292 | 22057 ft | 423 kts | 359° |
| 2026-05-06 01:07 | 17.94504 | -99.78451 | 22491 ft | 426 kts | 359° |
| 2026-05-06 01:07 | 17.97486 | -99.78611 | 22916 ft | 429 kts | 358° |
| 2026-05-06 01:08 | 18.00483 | -99.78772 | 23356 ft | 432 kts | 358° |
| 2026-05-06 01:08 | 18.03499 | -99.78934 | 23721 ft | 436 kts | 358° |
| 2026-05-06 01:08 | 18.06540 | -99.79097 | 24110 ft | 439 kts | 358° |
| 2026-05-06 01:08 | 18.09609 | -99.79262 | 24495 ft | 442 kts | 358° |
| 2026-05-06 01:09 | 18.12658 | -99.79425 | 24887 ft | 445 kts | 358° |
| 2026-05-06 01:09 | 18.15760 | -99.79592 | 25269 ft | 448 kts | 358° |
| 2026-05-06 01:09 | 18.18879 | -99.79760 | 25667 ft | 450 kts | 358° |
| 2026-05-06 01:09 | 18.22020 | -99.79928 | 26024 ft | 453 kts | 358° |
| 2026-05-06 01:10 | 18.25178 | -99.80098 | 26397 ft | 456 kts | 358° |
| 2026-05-06 01:10 | 18.28367 | -99.80270 | 26755 ft | 458 kts | 358° |
| 2026-05-06 01:10 | 18.31563 | -99.80441 | 27106 ft | 461 kts | 357° |
| 2026-05-06 01:10 | 18.34777 | -99.80614 | 27498 ft | 463 kts | 357° |
| 2026-05-06 01:11 | 18.38005 | -99.80788 | 27822 ft | 466 kts | 357° |
| 2026-05-06 01:11 | 18.41254 | -99.80963 | 28168 ft | 469 kts | 357° |
| 2026-05-06 01:11 | 18.44488 | -99.81137 | 28480 ft | 471 kts | 357° |
| 2026-05-06 01:11 | 18.47704 | -99.81311 | 28743 ft | 452 kts | 357° |
| 2026-05-06 01:12 | 18.50793 | -99.81477 | 28813 ft | 435 kts | 357° |
| 2026-05-06 01:12 | 18.53767 | -99.81638 | 28817 ft | 420 kts | 357° |
| 2026-05-06 01:12 | 18.56640 | -99.81793 | 28795 ft | 407 kts | 357° |
| 2026-05-06 01:12 | 18.59432 | -99.81943 | 28666 ft | 397 kts | 357° |
| 2026-05-06 01:13 | 18.62161 | -99.82090 | 28519 ft | 386 kts | 357° |
| 2026-05-06 01:13 | 18.64780 | -99.82232 | 28252 ft | 376 kts | 357° |
| 2026-05-06 01:13 | 18.67372 | -99.82372 | 27825 ft | 370 kts | 357° |
| 2026-05-06 01:13 | 18.69934 | -99.82511 | 27312 ft | 367 kts | 357° |
| 2026-05-06 01:14 | 18.74917 | -99.82189 | 26397 ft | 355 kts | 27° |
| 2026-05-06 01:14 | 18.76892 | -99.80713 | 25895 ft | 344 kts | 53° |
| 2026-05-06 01:14 | 18.78004 | -99.78591 | 25441 ft | 330 kts | 79° |
| 2026-05-06 01:15 | 18.78196 | -99.76225 | 24993 ft | 322 kts | 92° |
| 2026-05-06 01:15 | 18.78293 | -99.73874 | 24582 ft | 319 kts | 86° |
| 2026-05-06 01:15 | 18.78651 | -99.71574 | 24202 ft | 316 kts | 79° |
| 2026-05-06 01:15 | 18.79226 | -99.69341 | 23786 ft | 314 kts | 75° |
| 2026-05-06 01:16 | 18.79938 | -99.67166 | 23373 ft | 312 kts | 72° |
| 2026-05-06 01:16 | 18.80721 | -99.65047 | 22933 ft | 308 kts | 70° |
| 2026-05-06 01:16 | 18.81539 | -99.62968 | 22443 ft | 306 kts | 70° |
| 2026-05-06 01:16 | 18.82093 | -99.61601 | 22153 ft | 303 kts | 70° |
| 2026-05-06 01:17 | 18.82930 | -99.59578 | 21710 ft | 299 kts | 67° |
| 2026-05-06 01:17 | 18.83927 | -99.57651 | 21252 ft | 298 kts | 62° |
| 2026-05-06 01:17 | 18.84995 | -99.55792 | 20848 ft | 294 kts | 61° |
| 2026-05-06 01:17 | 18.86418 | -99.53379 | 20243 ft | 291 kts | 61° |
| 2026-05-06 01:18 | 18.87489 | -99.51586 | 19842 ft | 287 kts | 60° |
| 2026-05-06 01:18 | 18.88198 | -99.50405 | 19619 ft | 286 kts | 60° |
| 2026-05-06 01:18 | 18.89264 | -99.48632 | 19180 ft | 284 kts | 60° |
| 2026-05-06 01:18 | 18.90322 | -99.46876 | 18775 ft | 282 kts | 60° |
| 2026-05-06 01:19 | 18.91368 | -99.45139 | 18382 ft | 279 kts | 60° |
| 2026-05-06 01:19 | 18.92410 | -99.43411 | 17952 ft | 277 kts | 59° |
| 2026-05-06 01:19 | 18.93437 | -99.41708 | 17635 ft | 275 kts | 59° |
| 2026-05-06 01:19 | 18.94467 | -99.39997 | 17619 ft | 276 kts | 59° |
| 2026-05-06 01:20 | 18.95501 | -99.38282 | 17591 ft | 276 kts | 59° |
| 2026-05-06 01:20 | 18.96534 | -99.36566 | 17690 ft | 276 kts | 59° |
| 2026-05-06 01:20 | 18.97565 | -99.34854 | 17686 ft | 276 kts | 59° |
| 2026-05-06 01:20 | 18.98596 | -99.33143 | 17562 ft | 276 kts | 59° |
| 2026-05-06 01:21 | 18.99613 | -99.31454 | 17560 ft | 276 kts | 59° |
| 2026-05-06 01:21 | 19.00645 | -99.29739 | 17564 ft | 276 kts | 59° |
| 2026-05-06 01:21 | 19.01676 | -99.28025 | 17464 ft | 273 kts | 59° |
| 2026-05-06 01:21 | 19.02680 | -99.26359 | 17391 ft | 264 kts | 59° |
| 2026-05-06 01:22 | 19.03650 | -99.24748 | 17222 ft | 256 kts | 59° |
| 2026-05-06 01:22 | 19.04598 | -99.23173 | 16975 ft | 252 kts | 59° |
| 2026-05-06 01:22 | 19.05534 | -99.21614 | 16682 ft | 249 kts | 59° |
| 2026-05-06 01:22 | 19.06461 | -99.20072 | 16397 ft | 247 kts | 59° |
| 2026-05-06 01:23 | 19.07368 | -99.18562 | 16073 ft | 247 kts | 59° |
| 2026-05-06 01:23 | 19.08293 | -99.17020 | 15695 ft | 249 kts | 59° |
| 2026-05-06 01:23 | 19.09226 | -99.15465 | 15333 ft | 251 kts | 59° |
| 2026-05-06 01:23 | 19.10165 | -99.13902 | 14977 ft | 252 kts | 59° |
| 2026-05-06 01:24 | 19.11108 | -99.12331 | 14631 ft | 254 kts | 59° |
| 2026-05-06 01:24 | 19.12057 | -99.10750 | 14307 ft | 254 kts | 58° |
| 2026-05-06 01:24 | 19.13006 | -99.09167 | 13982 ft | 255 kts | 58° |
| 2026-05-06 01:24 | 19.13961 | -99.07574 | 13757 ft | 258 kts | 59° |
| 2026-05-06 01:25 | 19.14934 | -99.05952 | 13740 ft | 261 kts | 58° |
| 2026-05-06 01:25 | 19.15903 | -99.04336 | 13729 ft | 261 kts | 58° |
| 2026-05-06 01:25 | 19.16898 | -99.02734 | 13725 ft | 265 kts | 51° |
| 2026-05-06 01:25 | 19.18380 | -99.01628 | 13781 ft | 264 kts | 16° |
| 2026-05-06 01:26 | 19.20194 | -99.01626 | 13811 ft | 264 kts | 340° |
| 2026-05-06 01:26 | 19.21708 | -99.02705 | 13551 ft | 268 kts | 307° |
| 2026-05-06 01:26 | 19.22704 | -99.04380 | 13180 ft | 269 kts | 300° |
| 2026-05-06 01:26 | 19.23705 | -99.06049 | 12858 ft | 267 kts | 305° |
| 2026-05-06 01:27 | 19.24840 | -99.07596 | 12447 ft | 266 kts | 319° |
| 2026-05-06 01:27 | 19.26267 | -99.08849 | 12353 ft | 267 kts | 322° |
| 2026-05-06 01:27 | 19.27744 | -99.10033 | 12400 ft | 266 kts | 324° |
| 2026-05-06 01:27 | 19.29245 | -99.11177 | 12338 ft | 265 kts | 325° |
| 2026-05-06 01:28 | 19.30734 | -99.12285 | 12039 ft | 264 kts | 325° |
| 2026-05-06 01:28 | 19.32239 | -99.13392 | 11638 ft | 263 kts | 326° |
| 2026-05-06 01:28 | 19.33752 | -99.14499 | 11174 ft | 264 kts | 326° |
| 2026-05-06 01:28 | 19.35254 | -99.15595 | 10731 ft | 259 kts | 326° |
| 2026-05-06 01:29 | 19.36791 | -99.16624 | 10023 ft | 265 kts | 338° |
| 2026-05-06 01:29 | 19.38590 | -99.16809 | 9395 ft | 262 kts | 14° |
| 2026-05-06 01:29 | 19.40083 | -99.15853 | 9164 ft | 244 kts | 51° |
| 2026-05-06 01:29 | 19.40730 | -99.14297 | 8929 ft | 223 kts | 75° |